createdAt,value
2024-02-24T00:00:23.036Z,28.63
2024-02-24T00:03:11.347Z,26.23
2024-02-24T00:05:40.231Z,26.93
2024-02-24T00:08:09.098Z,24.40
2024-02-24T00:10:37.874Z,24.53
2024-02-24T00:13:09.147Z,24.30
2024-02-24T00:15:38.013Z,23.93
2024-02-24T00:18:06.821Z,26.00
2024-02-24T00:20:35.559Z,23.80
2024-02-24T00:23:03.968Z,24.80
2024-02-24T00:25:33.350Z,23.70
2024-02-24T00:28:01.711Z,23.10
2024-02-24T00:30:31.829Z,23.07
2024-02-24T00:33:00.260Z,23.13
2024-02-24T00:35:30.021Z,26.67
2024-02-24T00:37:58.767Z,27.33
2024-02-24T00:40:27.383Z,27.67
2024-02-24T00:42:55.776Z,26.27
2024-02-24T00:45:24.357Z,26.63
2024-02-24T00:47:54.139Z,26.53
2024-02-24T00:50:29.712Z,25.70
2024-02-24T00:52:58.186Z,26.20
2024-02-24T00:55:26.776Z,24.10
2024-02-24T00:57:55.161Z,26.57
2024-02-24T01:00:23.760Z,30.07
2024-02-24T01:02:54.212Z,33.47
2024-02-24T01:05:22.990Z,33.50
2024-02-24T01:07:51.620Z,31.17
2024-02-24T01:10:20.212Z,34.53
2024-02-24T01:12:48.642Z,36.83
2024-02-24T01:15:17.365Z,42.30
2024-02-24T01:17:45.889Z,45.90
2024-02-24T01:20:16.120Z,49.47
2024-02-24T01:22:46.527Z,50.63
2024-02-24T01:25:14.794Z,51.63
2024-02-24T01:27:43.701Z,55.20
2024-02-24T01:30:12.697Z,54.93
2024-02-24T01:32:41.277Z,54.10
2024-02-24T01:35:10.261Z,54.43
2024-02-24T01:37:40.459Z,54.40
2024-02-24T01:40:09.444Z,54.33
2024-02-24T01:42:43.189Z,55.67
2024-02-24T01:45:14.118Z,54.70
2024-02-24T01:47:43.261Z,59.47
2024-02-24T01:50:12.494Z,55.20
2024-02-24T01:52:43.257Z,56.10
2024-02-24T01:55:12.469Z,56.27
2024-02-24T01:57:44.074Z,58.23
2024-02-24T02:00:13.745Z,58.20
2024-02-24T02:02:45.436Z,60.17
2024-02-24T02:05:14.652Z,59.93
2024-02-24T02:07:44.858Z,59.00
2024-02-24T02:10:14.386Z,59.77
2024-02-24T02:12:43.187Z,59.97
2024-02-24T02:15:12.481Z,58.47
2024-02-24T02:17:41.356Z,56.73
2024-02-24T02:20:10.560Z,54.17
2024-02-24T02:22:40.926Z,53.90
2024-02-24T02:25:09.933Z,51.87
2024-02-24T02:27:38.468Z,52.47
2024-02-24T02:30:08.317Z,51.57
2024-02-24T02:32:37.567Z,51.13
2024-02-24T02:35:07.648Z,52.53
2024-02-24T02:37:36.253Z,52.83
2024-02-24T02:40:06.714Z,52.23
2024-02-24T02:42:35.704Z,50.93
2024-02-24T02:45:05.026Z,50.50
2024-02-24T02:47:33.724Z,52.00
2024-02-24T02:50:02.159Z,52.13
2024-02-24T02:52:30.849Z,51.97
2024-02-24T02:54:59.130Z,52.57
2024-02-24T02:57:29.123Z,50.43
2024-02-24T02:59:57.504Z,50.43
2024-02-24T03:02:26.085Z,50.60
2024-02-24T03:04:54.586Z,47.80
2024-02-24T03:07:23.253Z,50.17
2024-02-24T03:09:52.030Z,52.00
2024-02-24T03:12:20.806Z,50.13
2024-02-24T03:14:50.584Z,49.40
2024-02-24T03:17:19.277Z,48.73
2024-02-24T03:19:47.603Z,52.07
2024-02-24T03:22:16.094Z,52.33
2024-02-24T03:24:44.409Z,50.10
2024-02-24T03:27:12.948Z,49.87
2024-02-24T03:29:41.328Z,53.17
2024-02-24T03:32:11.593Z,57.87
2024-02-24T03:34:40.578Z,58.07
2024-02-24T03:37:09.212Z,57.83
2024-02-24T03:39:39.354Z,52.53
2024-02-24T03:42:07.982Z,52.90
2024-02-24T03:44:36.354Z,54.17
2024-02-24T03:47:05.315Z,53.53
2024-02-24T03:49:35.074Z,51.43
2024-02-24T03:52:03.753Z,49.93
2024-02-24T03:54:32.024Z,56.83
2024-02-24T03:57:00.667Z,57.23
2024-02-24T03:59:29.044Z,56.70
2024-02-24T04:01:57.659Z,55.60
2024-02-24T04:04:26.168Z,55.90
2024-02-24T04:06:56.156Z,57.00
2024-02-24T04:09:24.769Z,56.77
2024-02-24T04:11:54.070Z,56.33
2024-02-24T04:14:22.675Z,55.53
2024-02-24T04:16:51.253Z,55.97
2024-02-24T04:19:19.585Z,56.27
2024-02-24T04:21:48.258Z,54.23
2024-02-24T04:24:17.861Z,54.87
2024-02-24T04:26:46.488Z,56.47
2024-02-24T04:29:14.890Z,55.47
2024-02-24T04:31:43.558Z,54.67
2024-02-24T04:34:11.907Z,53.57
2024-02-24T04:36:43.136Z,53.37
2024-02-24T04:39:11.570Z,55.07
2024-02-24T04:41:41.520Z,54.77
2024-02-24T04:44:10.006Z,54.60
2024-02-24T04:46:39.698Z,54.27
2024-02-24T04:49:09.788Z,54.93
2024-02-24T04:51:38.556Z,54.83
2024-02-24T04:54:07.060Z,56.80
2024-02-24T04:56:35.709Z,56.87
2024-02-24T04:59:05.629Z,58.33
2024-02-24T05:01:34.241Z,59.43
2024-02-24T05:04:02.607Z,59.07
2024-02-24T05:06:31.620Z,55.67
2024-02-24T05:09:00.069Z,56.40
2024-02-24T05:11:28.800Z,56.60
2024-02-24T05:13:57.167Z,54.73
2024-02-24T05:16:27.190Z,55.57
2024-02-24T05:18:55.488Z,56.80
2024-02-24T05:21:25.276Z,58.17
2024-02-24T05:23:53.551Z,58.03
2024-02-24T05:26:25.262Z,56.03
2024-02-24T05:28:53.563Z,53.47
2024-02-24T05:31:22.342Z,53.37
2024-02-24T05:33:53.729Z,54.67
2024-02-24T05:36:22.648Z,52.77
2024-02-24T05:38:50.970Z,55.50
2024-02-24T05:41:19.924Z,53.93
2024-02-24T05:43:48.237Z,57.83
2024-02-24T05:46:18.516Z,52.47
2024-02-24T05:48:47.741Z,52.07
2024-02-24T05:51:18.467Z,54.07
2024-02-24T05:53:46.803Z,54.33
2024-02-24T05:56:15.500Z,51.63
2024-02-24T05:58:43.954Z,53.97
2024-02-24T06:01:12.641Z,54.63
2024-02-24T06:03:41.213Z,51.07
2024-02-24T06:06:10.115Z,51.50
2024-02-24T06:08:39.939Z,51.20
2024-02-24T06:11:09.557Z,51.37
2024-02-24T06:13:37.938Z,51.83
2024-02-24T06:16:07.006Z,49.67
2024-02-24T06:18:35.479Z,52.77
2024-02-24T06:21:04.808Z,51.93
2024-02-24T06:23:33.206Z,53.30
2024-02-24T06:26:03.263Z,52.13
2024-02-24T06:28:31.678Z,53.90
2024-02-24T06:31:00.322Z,50.70
2024-02-24T06:33:28.856Z,51.80
2024-02-24T06:35:57.490Z,51.17
2024-02-24T06:38:25.986Z,53.47
2024-02-24T06:40:54.619Z,53.60
2024-02-24T06:43:24.327Z,52.20
2024-02-24T06:45:52.997Z,54.90
2024-02-24T06:48:21.501Z,55.57
2024-02-24T06:50:50.237Z,53.10
2024-02-24T06:53:18.595Z,54.90
2024-02-24T06:55:47.339Z,53.73
2024-02-24T06:58:15.624Z,53.23
2024-02-24T07:00:45.599Z,54.83
2024-02-24T07:03:13.998Z,52.90
2024-02-24T07:05:44.169Z,52.80
2024-02-24T07:08:12.630Z,57.13
2024-02-24T07:10:41.218Z,55.10
2024-02-24T07:13:09.629Z,55.40
2024-02-24T07:15:38.211Z,54.20
2024-02-24T07:18:08.270Z,53.97
2024-02-24T07:20:37.058Z,55.83
2024-02-24T07:23:05.718Z,51.00
2024-02-24T07:25:34.393Z,51.07
2024-02-24T07:28:02.645Z,51.23
2024-02-24T07:30:31.286Z,52.40
2024-02-24T07:32:59.776Z,54.17
2024-02-24T07:35:29.899Z,53.00
2024-02-24T07:37:58.267Z,50.70
2024-02-24T07:40:26.867Z,50.60
2024-02-24T07:42:55.977Z,49.40
2024-02-24T07:45:26.520Z,47.53
2024-02-24T07:47:55.992Z,45.50
2024-02-24T07:50:25.023Z,48.50
2024-02-24T07:52:54.872Z,47.00
2024-02-24T07:55:23.490Z,47.43
2024-02-24T07:57:51.813Z,51.53
2024-02-24T08:00:20.958Z,55.23
2024-02-24T08:02:49.392Z,53.57
2024-02-24T08:05:19.402Z,50.37
2024-02-24T08:07:47.732Z,56.67
2024-02-24T08:10:17.759Z,57.20
2024-02-24T08:12:46.125Z,59.43
2024-02-24T08:15:14.741Z,60.37
2024-02-24T08:17:43.349Z,56.37
2024-02-24T08:20:14.042Z,58.67
2024-02-24T08:22:43.557Z,60.43
2024-02-24T08:25:12.165Z,58.43
2024-02-24T08:27:41.831Z,53.57
2024-02-24T08:30:11.674Z,55.03
2024-02-24T08:32:40.113Z,47.60
2024-02-24T08:35:09.687Z,45.47
2024-02-24T08:37:38.300Z,42.50
2024-02-24T08:40:08.059Z,41.07
2024-02-24T08:42:36.475Z,45.53
2024-02-24T08:45:07.366Z,43.07
2024-02-24T08:47:36.093Z,46.17
2024-02-24T08:50:05.374Z,45.43
2024-02-24T08:52:38.895Z,41.73
2024-02-24T08:55:15.101Z,40.27
2024-02-24T08:57:43.392Z,36.13
2024-02-24T09:00:14.707Z,40.70
2024-02-24T09:02:43.197Z,36.73
2024-02-24T09:05:11.944Z,30.27
2024-02-24T09:07:40.343Z,28.67
2024-02-24T09:10:10.047Z,30.53
2024-02-24T09:12:38.358Z,26.83
2024-02-24T09:15:08.356Z,24.23
2024-02-24T09:17:38.273Z,27.50
2024-02-24T09:20:10.070Z,21.73
2024-02-24T09:22:38.633Z,24.43
2024-02-24T09:25:07.655Z,21.00
2024-02-24T09:27:35.945Z,20.27
2024-02-24T09:30:04.822Z,20.87
2024-02-24T09:32:32.257Z,20.07
2024-02-24T09:35:02.533Z,16.93
2024-02-24T09:37:30.960Z,15.83
2024-02-24T09:40:00.682Z,15.73
2024-02-24T09:42:29.954Z,16.93
2024-02-24T09:45:03.552Z,16.07
2024-02-24T09:47:32.255Z,19.87
2024-02-24T09:50:02.518Z,24.83
2024-02-24T09:52:31.238Z,34.47
2024-02-24T09:55:00.123Z,30.23
2024-02-24T09:57:31.791Z,68.30
2024-02-24T10:00:01.305Z,3.77
2024-02-24T10:02:29.972Z,114.40
2024-02-24T10:04:59.783Z,67.23
2024-02-24T10:07:30.892Z,66.37
2024-02-24T10:09:59.640Z,130.60
2024-02-24T10:12:27.972Z,257.57
2024-02-24T10:14:56.569Z,396.53
2024-02-24T10:17:25.196Z,53.20
2024-02-24T10:19:53.855Z,152.37
2024-02-24T10:22:22.128Z,23.50
2024-02-24T10:24:52.243Z,13.00
2024-02-24T10:27:21.413Z,7.63
2024-02-24T10:29:53.018Z,7.03
2024-02-24T10:32:23.463Z,6.03
2024-02-24T10:34:53.729Z,10.03
2024-02-24T10:37:22.573Z,13.57
2024-02-24T10:39:53.156Z,61.23
2024-02-24T10:42:27.381Z,105.43
2024-02-24T10:44:56.598Z,7.87
2024-02-24T10:47:25.323Z,5.90
2024-02-24T10:49:53.976Z,7.03
2024-02-24T10:52:23.549Z,6.83
2024-02-24T10:54:57.059Z,7.53
2024-02-24T10:57:25.830Z,7.03
2024-02-24T10:59:55.159Z,5.10
2024-02-24T11:02:26.040Z,6.70
2024-02-24T11:04:54.742Z,5.10
2024-02-24T11:07:24.775Z,6.13
2024-02-24T11:09:56.079Z,6.30
2024-02-24T11:12:24.663Z,6.63
2024-02-24T11:14:56.216Z,6.50
2024-02-24T11:17:50.212Z,7.13
2024-02-24T11:20:56.075Z,7.33
2024-02-24T11:23:25.802Z,6.03
2024-02-24T11:26:30.443Z,5.27
2024-02-24T11:29:04.543Z,5.80
2024-02-24T11:31:36.132Z,5.23
2024-02-24T11:34:07.054Z,6.07
2024-02-24T11:36:39.456Z,5.07
2024-02-24T11:39:10.259Z,5.67
2024-02-24T11:41:42.133Z,6.07
2024-02-24T11:44:12.107Z,6.53
2024-02-24T11:46:42.615Z,5.63
2024-02-24T11:49:12.938Z,6.03
2024-02-24T11:51:44.398Z,5.27
2024-02-24T11:54:13.067Z,6.40
2024-02-24T11:56:42.988Z,4.97
2024-02-24T11:59:11.455Z,5.63
2024-02-24T12:01:40.168Z,5.83
2024-02-24T12:04:08.518Z,4.43
2024-02-24T12:06:37.215Z,5.57
2024-02-24T12:09:05.614Z,5.47
2024-02-24T12:11:34.555Z,6.37
2024-02-24T12:14:04.230Z,5.40
2024-02-24T12:16:33.523Z,5.67
2024-02-24T12:19:05.626Z,7.00
2024-02-24T12:21:34.272Z,5.23
2024-02-24T12:24:03.152Z,5.47
2024-02-24T12:26:33.371Z,6.03
2024-02-24T12:29:05.350Z,6.67
2024-02-24T12:31:34.249Z,5.80
2024-02-24T12:34:02.636Z,6.13
2024-02-24T12:36:33.565Z,8.70
2024-02-24T12:39:02.092Z,6.17
2024-02-24T12:41:30.762Z,6.40
2024-02-24T12:43:59.089Z,4.90
2024-02-24T12:46:28.967Z,49.37
2024-02-24T12:48:57.403Z,88.60
2024-02-24T12:51:26.034Z,7.43
2024-02-24T12:53:55.643Z,6.75
2024-02-24T12:56:24.242Z,6.87
2024-02-24T12:58:52.521Z,6.55
2024-02-24T13:01:21.097Z,8.47
2024-02-24T13:03:54.597Z,8.27
2024-02-24T13:06:23.385Z,9.18
2024-02-24T13:08:51.849Z,10.88
2024-02-24T13:11:20.597Z,20.73
2024-02-24T13:13:48.907Z,24.25
2024-02-24T13:16:17.409Z,18.50
2024-02-24T13:18:45.858Z,17.73
2024-02-24T13:21:15.792Z,23.60
2024-02-24T13:23:44.277Z,27.80
2024-02-24T13:26:12.896Z,35.60
2024-02-24T13:28:41.188Z,39.00
2024-02-24T13:31:09.730Z,41.55
2024-02-24T13:33:38.240Z,46.78
2024-02-24T13:36:07.719Z,31.73
2024-02-24T13:38:37.671Z,39.72
2024-02-24T13:41:06.504Z,35.33
2024-02-24T13:43:34.743Z,30.52
2024-02-24T13:46:03.378Z,34.20
2024-02-24T13:48:31.737Z,39.80
2024-02-24T13:51:00.385Z,21.85
2024-02-24T13:53:28.691Z,43.80
2024-02-24T13:56:00.176Z,24.58
2024-02-24T13:58:28.979Z,41.40
2024-02-24T14:01:00.051Z,22.95
2024-02-24T14:03:28.636Z,20.73
2024-02-24T14:05:58.045Z,50.88
2024-02-24T14:08:26.345Z,45.72
2024-02-24T14:10:55.827Z,46.83
2024-02-24T14:13:27.128Z,40.30
2024-02-24T14:15:56.821Z,44.15
2024-02-24T14:18:25.723Z,48.38
2024-02-24T14:20:54.652Z,57.15
2024-02-24T14:23:23.006Z,58.70
2024-02-24T14:25:51.510Z,64.80
2024-02-24T14:28:19.794Z,19.48
2024-02-24T14:30:51.573Z,5.45
2024-02-24T14:33:22.200Z,7.55
2024-02-24T14:35:50.841Z,13.38
2024-02-24T14:38:19.178Z,30.90
2024-02-24T14:40:50.293Z,98.50
2024-02-24T14:43:18.703Z,4.35
2024-02-24T14:45:47.219Z,5.28
2024-02-24T14:48:17.010Z,5.65
2024-02-24T14:50:45.815Z,4.28
2024-02-24T14:53:14.213Z,4.10
2024-02-24T14:55:42.856Z,5.97
2024-02-24T14:58:13.126Z,6.30
2024-02-24T15:00:42.663Z,5.82
2024-02-24T15:03:11.733Z,4.63
2024-02-24T15:05:43.062Z,5.65
2024-02-24T15:08:11.907Z,5.55
2024-02-24T15:10:40.437Z,3.80
2024-02-24T15:13:08.855Z,5.75
2024-02-24T15:15:37.577Z,4.65
2024-02-24T15:18:06.726Z,4.95
2024-02-24T15:20:35.465Z,5.28
2024-02-24T15:23:07.448Z,5.13
2024-02-24T15:25:38.297Z,4.97
2024-02-24T15:28:07.625Z,7.28
2024-02-24T15:30:36.229Z,6.40
2024-02-24T15:33:05.301Z,5.28
2024-02-24T15:35:33.993Z,9.82
2024-02-24T15:38:02.292Z,11.02
2024-02-24T15:40:34.455Z,6.43
2024-02-24T15:43:03.669Z,6.70
2024-02-24T15:45:32.179Z,7.15
2024-02-24T15:48:00.593Z,4.78
2024-02-24T15:50:29.325Z,5.53
2024-02-24T15:52:57.745Z,6.63
2024-02-24T15:55:26.344Z,6.22
2024-02-24T15:57:55.964Z,7.45
2024-02-24T16:00:24.821Z,5.65
2024-02-24T16:02:53.177Z,4.40
2024-02-24T16:05:23.217Z,4.95
2024-02-24T16:07:51.656Z,6.72
2024-02-24T16:10:20.414Z,4.95
2024-02-24T16:12:51.596Z,4.85
2024-02-24T16:15:21.472Z,5.63
2024-02-24T16:17:49.847Z,5.38
2024-02-24T16:20:18.809Z,5.15
2024-02-24T16:22:47.187Z,5.93
2024-02-24T16:25:16.570Z,10.63
2024-02-24T16:27:45.206Z,5.90
2024-02-24T16:30:14.906Z,6.13
2024-02-24T16:32:44.806Z,5.43
2024-02-24T16:35:13.787Z,9.02
2024-02-24T16:37:42.086Z,5.77
2024-02-24T16:40:11.467Z,6.60
2024-02-24T16:42:39.889Z,6.37
2024-02-24T16:45:10.151Z,6.17
2024-02-24T16:47:39.382Z,5.53
2024-02-24T16:50:12.042Z,5.77
2024-02-24T16:52:40.572Z,6.47
2024-02-24T16:55:11.074Z,6.20
2024-02-24T16:57:40.385Z,5.13
2024-02-24T17:00:11.038Z,4.57
2024-02-24T17:02:39.649Z,6.83
2024-02-24T17:05:12.115Z,6.67
2024-02-24T17:07:40.734Z,6.90
2024-02-24T17:10:09.992Z,6.33
2024-02-24T17:12:38.533Z,7.17
2024-02-24T17:15:11.216Z,8.30
2024-02-24T17:17:40.000Z,7.40
2024-02-24T17:20:11.090Z,8.57
2024-02-24T17:22:40.554Z,8.40
2024-02-24T17:25:10.081Z,8.77
2024-02-24T17:27:39.503Z,7.50
2024-02-24T17:30:09.212Z,6.50
2024-02-24T17:32:37.872Z,7.63
2024-02-24T17:35:08.156Z,7.63
2024-02-24T17:37:39.289Z,7.97
2024-02-24T17:40:09.097Z,8.70
2024-02-24T17:42:37.350Z,7.90
2024-02-24T17:45:06.766Z,7.50
2024-02-24T17:47:35.157Z,7.43
2024-02-24T17:50:04.301Z,8.80
2024-02-24T17:52:32.678Z,6.73
2024-02-24T17:55:02.745Z,8.87
2024-02-24T17:57:31.157Z,7.87
2024-02-24T18:00:00.005Z,7.43
2024-02-24T18:02:28.493Z,7.83
2024-02-24T18:04:57.050Z,7.47
2024-02-24T18:07:26.595Z,8.87
2024-02-24T18:09:55.305Z,8.10
2024-02-24T18:12:25.105Z,8.13
2024-02-24T18:14:54.150Z,9.33
2024-02-24T18:17:22.730Z,9.00
2024-02-24T18:19:51.431Z,11.07
2024-02-24T18:22:19.662Z,9.23
2024-02-24T18:24:48.401Z,8.23
2024-02-24T18:27:16.740Z,9.43
2024-02-24T18:29:46.814Z,9.53
2024-02-24T18:32:15.187Z,8.30
2024-02-24T18:34:44.018Z,8.60
2024-02-24T18:37:12.778Z,8.80
2024-02-24T18:39:43.059Z,8.20
2024-02-24T18:42:11.383Z,9.77
2024-02-24T18:44:40.331Z,9.97
2024-02-24T18:47:10.420Z,9.87
2024-02-24T18:49:38.991Z,8.00
2024-02-24T18:52:11.119Z,8.30
2024-02-24T18:54:39.955Z,8.77
2024-02-24T18:57:08.257Z,8.27
2024-02-24T18:59:36.984Z,9.50
2024-02-24T19:02:05.967Z,8.47
2024-02-24T19:04:35.922Z,10.00
2024-02-24T19:07:04.333Z,10.63
2024-02-24T19:09:32.884Z,11.33
2024-02-24T19:12:01.259Z,11.17
2024-02-24T19:14:29.985Z,12.07
2024-02-24T19:16:58.320Z,11.97
2024-02-24T19:19:27.313Z,10.53
2024-02-24T19:21:57.412Z,10.00
2024-02-24T19:24:26.022Z,10.33
2024-02-24T19:26:54.420Z,11.23
2024-02-24T19:29:23.116Z,10.43
2024-02-24T19:31:51.433Z,10.43
2024-02-24T19:34:20.781Z,10.03
2024-02-24T19:36:49.424Z,11.23
2024-02-24T19:39:19.835Z,12.70
2024-02-24T19:41:48.274Z,15.33
2024-02-24T19:44:16.880Z,18.07
2024-02-24T19:46:45.326Z,24.50
2024-02-24T19:49:17.676Z,28.20
2024-02-24T19:51:46.152Z,24.87
2024-02-24T19:54:14.792Z,22.47
2024-02-24T19:56:44.578Z,24.43
2024-02-24T19:59:13.228Z,32.27
2024-02-24T20:01:41.636Z,29.10
2024-02-24T20:04:10.475Z,25.53
2024-02-24T20:06:39.465Z,28.03
2024-02-24T20:09:08.489Z,31.80
2024-02-24T20:11:37.161Z,37.97
2024-02-24T20:14:07.265Z,32.83
2024-02-24T20:16:35.734Z,29.50
2024-02-24T20:19:04.634Z,25.87
2024-02-24T20:21:34.055Z,22.60
2024-02-24T20:24:04.999Z,31.20
2024-02-24T20:26:33.613Z,28.57
2024-02-24T20:29:02.418Z,30.27
2024-02-24T20:31:32.036Z,30.67
2024-02-24T20:34:07.134Z,22.27
2024-02-24T20:36:37.279Z,22.57
2024-02-24T20:39:07.281Z,19.00
2024-02-24T20:41:41.923Z,18.37
2024-02-24T20:44:13.880Z,15.33
2024-02-24T20:46:46.966Z,17.77
2024-02-24T20:49:18.643Z,18.43
2024-02-24T20:51:47.083Z,18.17
2024-02-24T20:54:15.693Z,17.50
2024-02-24T20:56:44.054Z,17.63
2024-02-24T20:59:12.600Z,21.70
2024-02-24T21:01:40.926Z,18.80
2024-02-24T21:04:10.928Z,20.70
2024-02-24T21:06:39.570Z,19.63
2024-02-24T21:09:08.510Z,22.80
2024-02-24T21:11:37.057Z,20.83
2024-02-24T21:14:07.651Z,22.03
2024-02-24T21:16:37.008Z,20.80
2024-02-24T21:19:08.187Z,17.37
2024-02-24T21:21:40.409Z,14.57
2024-02-24T21:24:09.364Z,16.63
2024-02-24T21:26:38.147Z,16.80
2024-02-24T21:29:06.892Z,15.90
2024-02-24T21:31:35.946Z,15.60
2024-02-24T21:34:04.741Z,15.17
2024-02-24T21:36:33.989Z,18.47
2024-02-24T21:39:04.883Z,18.47
2024-02-24T21:41:37.431Z,16.77
2024-02-24T21:44:06.546Z,17.53
2024-02-24T21:46:35.034Z,18.80
2024-02-24T21:49:04.360Z,19.90
2024-02-24T21:51:32.748Z,19.03
2024-02-24T21:54:03.330Z,19.70
2024-02-24T21:56:35.209Z,14.63
2024-02-24T21:59:03.791Z,15.50
2024-02-24T22:01:32.151Z,18.80
2024-02-24T22:04:01.805Z,33.10
2024-02-24T22:06:30.274Z,25.37
2024-02-24T22:08:58.938Z,25.87
2024-02-24T22:11:27.350Z,25.63
2024-02-24T22:13:57.293Z,26.50
2024-02-24T22:16:27.338Z,25.80
2024-02-24T22:18:56.324Z,30.03
2024-02-24T22:21:26.723Z,32.80
2024-02-24T22:23:56.199Z,33.23
2024-02-24T22:26:25.735Z,38.67
2024-02-24T22:28:54.439Z,42.00
2024-02-24T22:31:24.307Z,43.50
2024-02-24T22:33:52.994Z,36.77
2024-02-24T22:36:23.806Z,34.57
2024-02-24T22:38:53.561Z,30.67
2024-02-24T22:41:23.437Z,26.30
2024-02-24T22:43:52.389Z,23.47
2024-02-24T22:46:21.723Z,18.53
2024-02-24T22:48:51.952Z,18.10
2024-02-24T22:51:20.596Z,16.90
2024-02-24T22:53:49.287Z,20.03
2024-02-24T22:56:17.756Z,24.53
2024-02-24T22:58:46.686Z,29.27
2024-02-24T23:01:15.976Z,30.73
2024-02-24T23:03:44.809Z,25.70
2024-02-24T23:06:14.699Z,24.23
2024-02-24T23:08:43.868Z,18.60
2024-02-24T23:11:16.694Z,19.13
2024-02-24T23:13:50.921Z,18.40
2024-02-24T23:16:19.316Z,20.20
2024-02-24T23:18:48.077Z,20.30
2024-02-24T23:21:17.867Z,22.23
2024-02-24T23:23:46.572Z,20.40
2024-02-24T23:26:15.027Z,18.90
2024-02-24T23:28:57.219Z,14.70
2024-02-24T23:31:25.533Z,17.23
2024-02-24T23:33:54.203Z,16.03
2024-02-24T23:36:23.975Z,16.70
2024-02-24T23:38:52.533Z,22.37
2024-02-24T23:41:20.967Z,19.57
2024-02-24T23:43:49.514Z,22.90
2024-02-24T23:46:18.087Z,26.13
2024-02-24T23:48:47.457Z,23.07
2024-02-24T23:51:15.983Z,21.97
2024-02-24T23:53:45.984Z,22.33
2024-02-24T23:56:21.747Z,20.80
2024-02-24T23:58:50.484Z,20.83
